sensor_id;sensor_type;location;lat;lon;timestamp;P1;durP1;ratioP1;P2;durP2;ratioP2
22030;SDS011;11179;52.106;21.024;2023-02-12T00:00:02;6.40;;;1.77;;
22030;SDS011;11179;52.106;21.024;2023-02-12T00:02:30;6.10;;;1.70;;
22030;SDS011;11179;52.106;21.024;2023-02-12T00:04:56;4.07;;;1.80;;
22030;SDS011;11179;52.106;21.024;2023-02-12T00:07:21;4.50;;;1.80;;
22030;SDS011;11179;52.106;21.024;2023-02-12T00:09:46;5.77;;;1.87;;
22030;SDS011;11179;52.106;21.024;2023-02-12T00:12:12;3.90;;;1.73;;
22030;SDS011;11179;52.106;21.024;2023-02-12T00:14:37;4.10;;;1.50;;
22030;SDS011;11179;52.106;21.024;2023-02-12T00:17:02;6.80;;;2.13;;
22030;SDS011;11179;52.106;21.024;2023-02-12T00:19:28;7.00;;;2.53;;
22030;SDS011;11179;52.106;21.024;2023-02-12T00:21:53;5.53;;;1.80;;
22030;SDS011;11179;52.106;21.024;2023-02-12T00:24:19;4.97;;;1.77;;
22030;SDS011;11179;52.106;21.024;2023-02-12T00:26:44;6.90;;;2.20;;
22030;SDS011;11179;52.106;21.024;2023-02-12T00:29:09;5.60;;;1.80;;
22030;SDS011;11179;52.106;21.024;2023-02-12T00:31:35;4.77;;;2.03;;
22030;SDS011;11179;52.106;21.024;2023-02-12T00:34:00;4.07;;;1.87;;
22030;SDS011;11179;52.106;21.024;2023-02-12T00:36:26;4.93;;;1.53;;
22030;SDS011;11179;52.106;21.024;2023-02-12T00:38:53;5.43;;;2.13;;
22030;SDS011;11179;52.106;21.024;2023-02-12T00:41:20;4.03;;;1.50;;
22030;SDS011;11179;52.106;21.024;2023-02-12T00:43:46;4.60;;;1.73;;
22030;SDS011;11179;52.106;21.024;2023-02-12T00:46:12;4.72;;;1.90;;
22030;SDS011;11179;52.106;21.024;2023-02-12T00:48:38;3.70;;;1.60;;
22030;SDS011;11179;52.106;21.024;2023-02-12T00:51:03;5.10;;;2.10;;
22030;SDS011;11179;52.106;21.024;2023-02-12T00:53:29;5.60;;;1.90;;
22030;SDS011;11179;52.106;21.024;2023-02-12T00:55:55;5.60;;;1.80;;
22030;SDS011;11179;52.106;21.024;2023-02-12T00:58:21;6.10;;;1.83;;
22030;SDS011;11179;52.106;21.024;2023-02-12T01:00:47;6.47;;;2.30;;
22030;SDS011;11179;52.106;21.024;2023-02-12T01:03:12;4.10;;;1.50;;
22030;SDS011;11179;52.106;21.024;2023-02-12T01:05:38;6.50;;;1.77;;
22030;SDS011;11179;52.106;21.024;2023-02-12T01:08:03;3.67;;;1.70;;
22030;SDS011;11179;52.106;21.024;2023-02-12T01:10:29;4.00;;;1.50;;
22030;SDS011;11179;52.106;21.024;2023-02-12T01:12:54;3.70;;;1.47;;
22030;SDS011;11179;52.106;21.024;2023-02-12T01:15:20;4.07;;;2.00;;
22030;SDS011;11179;52.106;21.024;2023-02-12T01:17:46;7.33;;;2.53;;
22030;SDS011;11179;52.106;21.024;2023-02-12T01:20:13;4.73;;;2.13;;
22030;SDS011;11179;52.106;21.024;2023-02-12T01:22:44;4.87;;;1.90;;
22030;SDS011;11179;52.106;21.024;2023-02-12T01:25:09;4.70;;;1.60;;
22030;SDS011;11179;52.106;21.024;2023-02-12T01:27:34;4.53;;;1.73;;
22030;SDS011;11179;52.106;21.024;2023-02-12T01:30:00;7.73;;;1.87;;
22030;SDS011;11179;52.106;21.024;2023-02-12T01:32:26;4.50;;;1.70;;
22030;SDS011;11179;52.106;21.024;2023-02-12T01:34:51;3.60;;;1.67;;
22030;SDS011;11179;52.106;21.024;2023-02-12T01:37:17;5.00;;;1.53;;
22030;SDS011;11179;52.106;21.024;2023-02-12T01:39:42;5.43;;;1.80;;
22030;SDS011;11179;52.106;21.024;2023-02-12T01:42:09;3.70;;;1.50;;
22030;SDS011;11179;52.106;21.024;2023-02-12T01:44:38;5.90;;;2.20;;
22030;SDS011;11179;52.106;21.024;2023-02-12T01:47:18;5.87;;;2.00;;
22030;SDS011;11179;52.106;21.024;2023-02-12T01:49:44;4.47;;;1.47;;
22030;SDS011;11179;52.106;21.024;2023-02-12T01:52:19;7.10;;;1.73;;
22030;SDS011;11179;52.106;21.024;2023-02-12T01:54:49;5.80;;;1.92;;
22030;SDS011;11179;52.106;21.024;2023-02-12T01:57:19;4.10;;;1.53;;
22030;SDS011;11179;52.106;21.024;2023-02-12T01:59:46;4.20;;;1.57;;
22030;SDS011;11179;52.106;21.024;2023-02-12T02:02:14;3.57;;;1.30;;
22030;SDS011;11179;52.106;21.024;2023-02-12T02:04:45;4.27;;;1.90;;
22030;SDS011;11179;52.106;21.024;2023-02-12T02:07:14;5.47;;;1.57;;
22030;SDS011;11179;52.106;21.024;2023-02-12T02:09:39;3.50;;;1.40;;
22030;SDS011;11179;52.106;21.024;2023-02-12T02:12:05;3.80;;;1.33;;
22030;SDS011;11179;52.106;21.024;2023-02-12T02:14:51;5.20;;;1.40;;
22030;SDS011;11179;52.106;21.024;2023-02-12T02:20:14;2.97;;;1.17;;
22030;SDS011;11179;52.106;21.024;2023-02-12T02:23:07;4.03;;;1.73;;
22030;SDS011;11179;52.106;21.024;2023-02-12T02:28:31;3.45;;;1.20;;
22030;SDS011;11179;52.106;21.024;2023-02-12T02:36:28;4.30;;;1.20;;
22030;SDS011;11179;52.106;21.024;2023-02-12T02:39:08;5.93;;;1.52;;
22030;SDS011;11179;52.106;21.024;2023-02-12T02:41:42;9.02;;;1.60;;
22030;SDS011;11179;52.106;21.024;2023-02-12T02:44:22;3.25;;;1.00;;
22030;SDS011;11179;52.106;21.024;2023-02-12T02:46:52;6.57;;;1.70;;
22030;SDS011;11179;52.106;21.024;2023-02-12T02:49:20;4.20;;;1.77;;
22030;SDS011;11179;52.106;21.024;2023-02-12T02:51:50;3.33;;;1.35;;
22030;SDS011;11179;52.106;21.024;2023-02-12T02:54:30;3.93;;;1.40;;
22030;SDS011;11179;52.106;21.024;2023-02-12T02:57:11;4.17;;;1.50;;
22030;SDS011;11179;52.106;21.024;2023-02-12T02:59:41;4.13;;;1.47;;
22030;SDS011;11179;52.106;21.024;2023-02-12T03:02:13;3.03;;;1.40;;
22030;SDS011;11179;52.106;21.024;2023-02-12T03:04:51;8.33;;;1.70;;
22030;SDS011;11179;52.106;21.024;2023-02-12T03:07:27;8.63;;;1.40;;
22030;SDS011;11179;52.106;21.024;2023-02-12T03:10:03;5.33;;;1.47;;
22030;SDS011;11179;52.106;21.024;2023-02-12T03:12:37;4.28;;;1.20;;
22030;SDS011;11179;52.106;21.024;2023-02-12T03:15:07;4.70;;;2.00;;
22030;SDS011;11179;52.106;21.024;2023-02-12T03:17:39;3.45;;;1.50;;
22030;SDS011;11179;52.106;21.024;2023-02-12T03:20:21;3.28;;;1.30;;
22030;SDS011;11179;52.106;21.024;2023-02-12T03:22:52;3.47;;;1.40;;
22030;SDS011;11179;52.106;21.024;2023-02-12T03:25:23;2.95;;;1.20;;
22030;SDS011;11179;52.106;21.024;2023-02-12T03:28:00;3.63;;;1.38;;
22030;SDS011;11179;52.106;21.024;2023-02-12T03:30:35;3.77;;;1.33;;
22030;SDS011;11179;52.106;21.024;2023-02-12T03:35:46;3.67;;;1.58;;
22030;SDS011;11179;52.106;21.024;2023-02-12T03:38:41;3.85;;;1.40;;
22030;SDS011;11179;52.106;21.024;2023-02-12T03:41:27;6.00;;;1.60;;
22030;SDS011;11179;52.106;21.024;2023-02-12T03:44:04;6.73;;;1.93;;
22030;SDS011;11179;52.106;21.024;2023-02-12T03:46:40;3.08;;;1.38;;
22030;SDS011;11179;52.106;21.024;2023-02-12T03:52:11;4.47;;;1.65;;
22030;SDS011;11179;52.106;21.024;2023-02-12T03:54:37;3.40;;;1.30;;
22030;SDS011;11179;52.106;21.024;2023-02-12T03:57:04;6.63;;;1.80;;
22030;SDS011;11179;52.106;21.024;2023-02-12T03:59:34;3.65;;;1.30;;
22030;SDS011;11179;52.106;21.024;2023-02-12T04:02:01;3.15;;;1.08;;
22030;SDS011;11179;52.106;21.024;2023-02-12T04:04:27;4.38;;;1.50;;
22030;SDS011;11179;52.106;21.024;2023-02-12T04:06:53;3.63;;;1.73;;
22030;SDS011;11179;52.106;21.024;2023-02-12T04:09:19;3.05;;;1.10;;
22030;SDS011;11179;52.106;21.024;2023-02-12T04:28:27;7.13;;;1.40;;
22030;SDS011;11179;52.106;21.024;2023-02-12T04:31:05;4.43;;;1.30;;
22030;SDS011;11179;52.106;21.024;2023-02-12T04:33:45;4.05;;;1.30;;
22030;SDS011;11179;52.106;21.024;2023-02-12T04:36:20;4.03;;;1.48;;
22030;SDS011;11179;52.106;21.024;2023-02-12T04:38:50;3.87;;;1.40;;
22030;SDS011;11179;52.106;21.024;2023-02-12T04:41:19;3.45;;;1.33;;
22030;SDS011;11179;52.106;21.024;2023-02-12T04:43:45;4.20;;;1.40;;
22030;SDS011;11179;52.106;21.024;2023-02-12T04:46:11;3.53;;;1.37;;
22030;SDS011;11179;52.106;21.024;2023-02-12T04:48:36;5.20;;;1.70;;
22030;SDS011;11179;52.106;21.024;2023-02-12T04:51:16;3.53;;;1.27;;
22030;SDS011;11179;52.106;21.024;2023-02-12T04:53:41;8.27;;;1.63;;
22030;SDS011;11179;52.106;21.024;2023-02-12T04:56:07;4.10;;;1.37;;
22030;SDS011;11179;52.106;21.024;2023-02-12T04:58:35;4.57;;;1.30;;
22030;SDS011;11179;52.106;21.024;2023-02-12T05:01:01;4.38;;;1.75;;
22030;SDS011;11179;52.106;21.024;2023-02-12T05:03:27;4.63;;;1.80;;
22030;SDS011;11179;52.106;21.024;2023-02-12T05:05:52;4.67;;;2.10;;
22030;SDS011;11179;52.106;21.024;2023-02-12T05:08:17;4.43;;;2.33;;
22030;SDS011;11179;52.106;21.024;2023-02-12T05:10:43;5.13;;;2.23;;
22030;SDS011;11179;52.106;21.024;2023-02-12T05:13:08;4.23;;;1.67;;
22030;SDS011;11179;52.106;21.024;2023-02-12T05:15:34;5.22;;;2.00;;
22030;SDS011;11179;52.106;21.024;2023-02-12T05:18:03;5.50;;;2.03;;
22030;SDS011;11179;52.106;21.024;2023-02-12T05:20:28;3.47;;;1.70;;
22030;SDS011;11179;52.106;21.024;2023-02-12T05:22:53;4.70;;;2.13;;
22030;SDS011;11179;52.106;21.024;2023-02-12T05:25:19;3.57;;;1.60;;
22030;SDS011;11179;52.106;21.024;2023-02-12T05:27:44;6.50;;;1.93;;
22030;SDS011;11179;52.106;21.024;2023-02-12T05:30:09;4.03;;;1.67;;
22030;SDS011;11179;52.106;21.024;2023-02-12T05:32:35;4.00;;;1.57;;
22030;SDS011;11179;52.106;21.024;2023-02-12T05:35:00;5.07;;;1.90;;
22030;SDS011;11179;52.106;21.024;2023-02-12T05:37:26;6.97;;;2.23;;
22030;SDS011;11179;52.106;21.024;2023-02-12T05:39:51;5.30;;;2.20;;
22030;SDS011;11179;52.106;21.024;2023-02-12T05:42:17;6.25;;;2.60;;
22030;SDS011;11179;52.106;21.024;2023-02-12T05:44:43;4.73;;;2.20;;
22030;SDS011;11179;52.106;21.024;2023-02-12T05:47:08;5.87;;;1.90;;
22030;SDS011;11179;52.106;21.024;2023-02-12T05:49:33;5.20;;;2.20;;
22030;SDS011;11179;52.106;21.024;2023-02-12T05:51:59;5.77;;;2.23;;
22030;SDS011;11179;52.106;21.024;2023-02-12T05:54:24;5.47;;;2.20;;
22030;SDS011;11179;52.106;21.024;2023-02-12T05:56:49;7.07;;;2.60;;
22030;SDS011;11179;52.106;21.024;2023-02-12T05:59:17;7.53;;;3.07;;
22030;SDS011;11179;52.106;21.024;2023-02-12T06:01:44;5.80;;;2.90;;
22030;SDS011;11179;52.106;21.024;2023-02-12T06:04:15;6.07;;;2.20;;
22030;SDS011;11179;52.106;21.024;2023-02-12T06:06:42;5.65;;;2.50;;
22030;SDS011;11179;52.106;21.024;2023-02-12T06:09:09;4.33;;;2.10;;
22030;SDS011;11179;52.106;21.024;2023-02-12T06:11:36;8.32;;;2.10;;
22030;SDS011;11179;52.106;21.024;2023-02-12T06:14:02;6.90;;;2.53;;
22030;SDS011;11179;52.106;21.024;2023-02-12T06:16:32;5.10;;;2.47;;
22030;SDS011;11179;52.106;21.024;2023-02-12T06:18:59;6.63;;;3.28;;
22030;SDS011;11179;52.106;21.024;2023-02-12T06:21:26;5.63;;;2.50;;
22030;SDS011;11179;52.106;21.024;2023-02-12T06:23:53;7.40;;;3.10;;
22030;SDS011;11179;52.106;21.024;2023-02-12T06:26:20;5.00;;;2.50;;
22030;SDS011;11179;52.106;21.024;2023-02-12T06:28:46;8.68;;;3.28;;
22030;SDS011;11179;52.106;21.024;2023-02-12T06:31:20;9.05;;;3.00;;
22030;SDS011;11179;52.106;21.024;2023-02-12T06:33:48;7.15;;;3.50;;
22030;SDS011;11179;52.106;21.024;2023-02-12T06:36:13;5.63;;;2.93;;
22030;SDS011;11179;52.106;21.024;2023-02-12T06:38:39;5.87;;;3.00;;
22030;SDS011;11179;52.106;21.024;2023-02-12T06:41:05;5.47;;;2.60;;
22030;SDS011;11179;52.106;21.024;2023-02-12T06:43:30;6.33;;;2.97;;
22030;SDS011;11179;52.106;21.024;2023-02-12T06:45:55;5.77;;;3.00;;
22030;SDS011;11179;52.106;21.024;2023-02-12T06:48:25;8.63;;;2.75;;
22030;SDS011;11179;52.106;21.024;2023-02-12T06:50:50;5.70;;;2.60;;
22030;SDS011;11179;52.106;21.024;2023-02-12T06:53:15;9.33;;;2.93;;
22030;SDS011;11179;52.106;21.024;2023-02-12T06:55:41;6.83;;;3.47;;
22030;SDS011;11179;52.106;21.024;2023-02-12T06:58:06;6.33;;;2.87;;
22030;SDS011;11179;52.106;21.024;2023-02-12T07:00:31;5.37;;;3.07;;
22030;SDS011;11179;52.106;21.024;2023-02-12T07:02:56;5.40;;;2.93;;
22030;SDS011;11179;52.106;21.024;2023-02-12T07:05:22;8.03;;;2.77;;
22030;SDS011;11179;52.106;21.024;2023-02-12T07:07:48;9.52;;;3.47;;
22030;SDS011;11179;52.106;21.024;2023-02-12T07:10:14;7.67;;;3.17;;
22030;SDS011;11179;52.106;21.024;2023-02-12T07:12:39;5.77;;;3.10;;
22030;SDS011;11179;52.106;21.024;2023-02-12T07:15:05;5.03;;;2.93;;
22030;SDS011;11179;52.106;21.024;2023-02-12T07:17:30;5.20;;;2.60;;
22030;SDS011;11179;52.106;21.024;2023-02-12T07:19:56;6.27;;;3.20;;
22030;SDS011;11179;52.106;21.024;2023-02-12T07:22:21;5.27;;;2.63;;
22030;SDS011;11179;52.106;21.024;2023-02-12T07:24:47;7.30;;;2.30;;
22030;SDS011;11179;52.106;21.024;2023-02-12T07:27:12;5.97;;;2.60;;
22030;SDS011;11179;52.106;21.024;2023-02-12T07:29:38;4.67;;;2.43;;
22030;SDS011;11179;52.106;21.024;2023-02-12T07:32:03;4.80;;;2.50;;
22030;SDS011;11179;52.106;21.024;2023-02-12T07:34:29;7.80;;;2.77;;
22030;SDS011;11179;52.106;21.024;2023-02-12T07:36:54;6.47;;;2.73;;
22030;SDS011;11179;52.106;21.024;2023-02-12T07:39:19;6.00;;;2.60;;
22030;SDS011;11179;52.106;21.024;2023-02-12T07:41:45;6.37;;;3.10;;
22030;SDS011;11179;52.106;21.024;2023-02-12T07:44:10;7.27;;;2.50;;
22030;SDS011;11179;52.106;21.024;2023-02-12T07:46:38;5.40;;;2.70;;
22030;SDS011;11179;52.106;21.024;2023-02-12T07:49:05;4.50;;;2.20;;
22030;SDS011;11179;52.106;21.024;2023-02-12T07:51:32;6.17;;;2.53;;
22030;SDS011;11179;52.106;21.024;2023-02-12T07:53:59;7.53;;;2.77;;
22030;SDS011;11179;52.106;21.024;2023-02-12T07:56:26;5.50;;;2.83;;
22030;SDS011;11179;52.106;21.024;2023-02-12T07:58:57;6.20;;;2.03;;
22030;SDS011;11179;52.106;21.024;2023-02-12T08:03:54;4.93;;;2.40;;
22030;SDS011;11179;52.106;21.024;2023-02-12T08:06:24;5.70;;;2.23;;
22030;SDS011;11179;52.106;21.024;2023-02-12T08:08:51;8.60;;;2.20;;
22030;SDS011;11179;52.106;21.024;2023-02-12T08:11:21;6.87;;;2.10;;
22030;SDS011;11179;52.106;21.024;2023-02-12T08:13:47;4.57;;;2.00;;
22030;SDS011;11179;52.106;21.024;2023-02-12T08:16:17;4.23;;;2.03;;
22030;SDS011;11179;52.106;21.024;2023-02-12T08:18:44;4.00;;;1.73;;
22030;SDS011;11179;52.106;21.024;2023-02-12T08:21:13;5.20;;;2.43;;
22030;SDS011;11179;52.106;21.024;2023-02-12T08:23:40;5.77;;;2.50;;
22030;SDS011;11179;52.106;21.024;2023-02-12T08:26:11;4.30;;;2.00;;
22030;SDS011;11179;52.106;21.024;2023-02-12T08:28:56;4.83;;;2.37;;
22030;SDS011;11179;52.106;21.024;2023-02-12T08:31:27;4.17;;;2.00;;
22030;SDS011;11179;52.106;21.024;2023-02-12T08:33:55;4.87;;;2.07;;
22030;SDS011;11179;52.106;21.024;2023-02-12T08:36:21;5.40;;;2.10;;
22030;SDS011;11179;52.106;21.024;2023-02-12T08:38:49;6.43;;;2.80;;
22030;SDS011;11179;52.106;21.024;2023-02-12T08:41:16;4.70;;;2.17;;
22030;SDS011;11179;52.106;21.024;2023-02-12T08:43:43;5.90;;;2.73;;
22030;SDS011;11179;52.106;21.024;2023-02-12T08:46:10;5.43;;;2.57;;
22030;SDS011;11179;52.106;21.024;2023-02-12T08:48:38;5.27;;;2.60;;
22030;SDS011;11179;52.106;21.024;2023-02-12T08:53:41;4.60;;;2.60;;
22030;SDS011;11179;52.106;21.024;2023-02-12T08:56:09;4.43;;;2.30;;
22030;SDS011;11179;52.106;21.024;2023-02-12T08:58:35;4.67;;;2.53;;
22030;SDS011;11179;52.106;21.024;2023-02-12T09:01:02;7.00;;;2.70;;
22030;SDS011;11179;52.106;21.024;2023-02-12T09:03:28;8.37;;;2.37;;
22030;SDS011;11179;52.106;21.024;2023-02-12T09:05:53;5.10;;;2.40;;
22030;SDS011;11179;52.106;21.024;2023-02-12T09:08:24;5.83;;;2.57;;
22030;SDS011;11179;52.106;21.024;2023-02-12T09:10:49;5.67;;;2.50;;
22030;SDS011;11179;52.106;21.024;2023-02-12T09:13:15;5.87;;;2.87;;
22030;SDS011;11179;52.106;21.024;2023-02-12T09:15:41;6.70;;;2.93;;
22030;SDS011;11179;52.106;21.024;2023-02-12T09:18:08;5.50;;;2.50;;
22030;SDS011;11179;52.106;21.024;2023-02-12T09:20:38;6.27;;;2.53;;
22030;SDS011;11179;52.106;21.024;2023-02-12T09:23:07;4.57;;;2.40;;
22030;SDS011;11179;52.106;21.024;2023-02-12T09:25:38;7.33;;;3.03;;
22030;SDS011;11179;52.106;21.024;2023-02-12T09:28:08;7.93;;;2.47;;
22030;SDS011;11179;52.106;21.024;2023-02-12T09:30:35;7.10;;;3.10;;
22030;SDS011;11179;52.106;21.024;2023-02-12T09:33:01;5.33;;;2.83;;
22030;SDS011;11179;52.106;21.024;2023-02-12T09:35:26;4.97;;;2.67;;
22030;SDS011;11179;52.106;21.024;2023-02-12T09:37:52;5.87;;;3.40;;
22030;SDS011;11179;52.106;21.024;2023-02-12T09:40:21;6.07;;;2.87;;
22030;SDS011;11179;52.106;21.024;2023-02-12T09:45:41;8.23;;;2.77;;
22030;SDS011;11179;52.106;21.024;2023-02-12T09:48:35;8.00;;;2.83;;
22030;SDS011;11179;52.106;21.024;2023-02-12T09:51:09;6.67;;;3.80;;
22030;SDS011;11179;52.106;21.024;2023-02-12T09:53:38;6.63;;;3.00;;
22030;SDS011;11179;52.106;21.024;2023-02-12T09:56:25;12.03;;;3.20;;
22030;SDS011;11179;52.106;21.024;2023-02-12T09:58:58;6.90;;;3.63;;
22030;SDS011;11179;52.106;21.024;2023-02-12T10:01:27;5.00;;;3.07;;
22030;SDS011;11179;52.106;21.024;2023-02-12T10:03:53;7.10;;;3.33;;
22030;SDS011;11179;52.106;21.024;2023-02-12T10:06:20;6.73;;;2.90;;
22030;SDS011;11179;52.106;21.024;2023-02-12T10:11:52;5.93;;;2.90;;
22030;SDS011;11179;52.106;21.024;2023-02-12T10:28:11;5.37;;;2.90;;
22030;SDS011;11179;52.106;21.024;2023-02-12T10:31:03;4.90;;;2.30;;
22030;SDS011;11179;52.106;21.024;2023-02-12T10:33:40;7.40;;;2.90;;
22030;SDS011;11179;52.106;21.024;2023-02-12T10:39:13;6.20;;;3.17;;
22030;SDS011;11179;52.106;21.024;2023-02-12T10:41:43;6.93;;;3.20;;
22030;SDS011;11179;52.106;21.024;2023-02-12T10:44:17;6.67;;;3.27;;
22030;SDS011;11179;52.106;21.024;2023-02-12T10:46:42;6.20;;;2.90;;
22030;SDS011;11179;52.106;21.024;2023-02-12T10:49:07;4.80;;;2.53;;
22030;SDS011;11179;52.106;21.024;2023-02-12T10:51:57;6.30;;;3.20;;
22030;SDS011;11179;52.106;21.024;2023-02-12T10:54:45;9.20;;;3.60;;
22030;SDS011;11179;52.106;21.024;2023-02-12T10:57:23;4.80;;;2.50;;
22030;SDS011;11179;52.106;21.024;2023-02-12T10:59:52;6.87;;;2.70;;
22030;SDS011;11179;52.106;21.024;2023-02-12T11:04:51;7.27;;;3.10;;
22030;SDS011;11179;52.106;21.024;2023-02-12T11:07:18;6.83;;;3.30;;
22030;SDS011;11179;52.106;21.024;2023-02-12T11:09:45;5.27;;;3.13;;
22030;SDS011;11179;52.106;21.024;2023-02-12T11:12:32;10.83;;;4.00;;
22030;SDS011;11179;52.106;21.024;2023-02-12T11:14:59;7.40;;;3.57;;
22030;SDS011;11179;52.106;21.024;2023-02-12T11:20:40;7.13;;;4.03;;
22030;SDS011;11179;52.106;21.024;2023-02-12T11:22:59;8.30;;;4.70;;
22030;SDS011;11179;52.106;21.024;2023-02-12T11:25:30;6.90;;;3.50;;
22030;SDS011;11179;52.106;21.024;2023-02-12T11:27:59;7.43;;;3.83;;
22030;SDS011;11179;52.106;21.024;2023-02-12T11:30:27;7.10;;;3.67;;
22030;SDS011;11179;52.106;21.024;2023-02-12T11:32:53;12.20;;;4.67;;
22030;SDS011;11179;52.106;21.024;2023-02-12T11:35:20;8.30;;;4.00;;
22030;SDS011;11179;52.106;21.024;2023-02-12T11:38:01;9.00;;;5.43;;
22030;SDS011;11179;52.106;21.024;2023-02-12T11:40:28;9.30;;;4.60;;
22030;SDS011;11179;52.106;21.024;2023-02-12T11:43:02;8.97;;;5.17;;
22030;SDS011;11179;52.106;21.024;2023-02-12T11:45:31;7.90;;;4.63;;
22030;SDS011;11179;52.106;21.024;2023-02-12T11:48:00;10.10;;;5.23;;
22030;SDS011;11179;52.106;21.024;2023-02-12T11:50:27;8.70;;;5.00;;
22030;SDS011;11179;52.106;21.024;2023-02-12T11:52:57;10.17;;;5.83;;
22030;SDS011;11179;52.106;21.024;2023-02-12T11:55:27;9.87;;;5.50;;
22030;SDS011;11179;52.106;21.024;2023-02-12T11:58:04;9.40;;;4.97;;
22030;SDS011;11179;52.106;21.024;2023-02-12T12:00:37;9.23;;;5.63;;
22030;SDS011;11179;52.106;21.024;2023-02-12T12:03:14;9.80;;;4.60;;
22030;SDS011;11179;52.106;21.024;2023-02-12T12:05:44;7.30;;;4.80;;
22030;SDS011;11179;52.106;21.024;2023-02-12T12:08:25;11.53;;;7.30;;
22030;SDS011;11179;52.106;21.024;2023-02-12T12:10:56;10.53;;;6.23;;
22030;SDS011;11179;52.106;21.024;2023-02-12T12:13:38;7.90;;;4.50;;
22030;SDS011;11179;52.106;21.024;2023-02-12T12:16:12;9.37;;;4.70;;
22030;SDS011;11179;52.106;21.024;2023-02-12T12:19:19;15.23;;;5.03;;
22030;SDS011;11179;52.106;21.024;2023-02-12T12:22:12;8.60;;;5.00;;
22030;SDS011;11179;52.106;21.024;2023-02-12T12:24:51;9.03;;;4.60;;
22030;SDS011;11179;52.106;21.024;2023-02-12T12:27:32;12.17;;;5.17;;
22030;SDS011;11179;52.106;21.024;2023-02-12T12:30:20;12.50;;;5.57;;
22030;SDS011;11179;52.106;21.024;2023-02-12T12:32:51;9.67;;;4.90;;
22030;SDS011;11179;52.106;21.024;2023-02-12T12:35:21;10.43;;;4.67;;
22030;SDS011;11179;52.106;21.024;2023-02-12T12:38:06;12.73;;;5.23;;
22030;SDS011;11179;52.106;21.024;2023-02-12T12:40:53;9.70;;;4.53;;
22030;SDS011;11179;52.106;21.024;2023-02-12T13:08:05;10.03;;;5.13;;
22030;SDS011;11179;52.106;21.024;2023-02-12T13:10:59;9.87;;;5.03;;
22030;SDS011;11179;52.106;21.024;2023-02-12T13:13:36;16.50;;;5.30;;
22030;SDS011;11179;52.106;21.024;2023-02-12T13:16:10;8.07;;;4.33;;
22030;SDS011;11179;52.106;21.024;2023-02-12T13:29:31;16.37;;;4.80;;
22030;SDS011;11179;52.106;21.024;2023-02-12T13:34:29;10.70;;;4.30;;
22030;SDS011;11179;52.106;21.024;2023-02-12T13:37:01;8.67;;;4.20;;
22030;SDS011;11179;52.106;21.024;2023-02-12T13:39:36;9.40;;;4.23;;
22030;SDS011;11179;52.106;21.024;2023-02-12T13:44:46;10.23;;;5.70;;
22030;SDS011;11179;52.106;21.024;2023-02-12T13:53:11;12.67;;;5.40;;
22030;SDS011;11179;52.106;21.024;2023-02-12T13:56:00;9.40;;;5.77;;
22030;SDS011;11179;52.106;21.024;2023-02-12T14:01:05;9.60;;;4.87;;
22030;SDS011;11179;52.106;21.024;2023-02-12T14:03:34;8.27;;;4.60;;
22030;SDS011;11179;52.106;21.024;2023-02-12T14:08:35;9.33;;;4.80;;
22030;SDS011;11179;52.106;21.024;2023-02-12T14:11:06;10.60;;;5.57;;
22030;SDS011;11179;52.106;21.024;2023-02-12T14:13:44;10.00;;;5.30;;
22030;SDS011;11179;52.106;21.024;2023-02-12T14:16:20;10.10;;;5.10;;
22030;SDS011;11179;52.106;21.024;2023-02-12T14:22:00;12.63;;;6.17;;
22030;SDS011;11179;52.106;21.024;2023-02-12T14:27:05;10.60;;;5.60;;
22030;SDS011;11179;52.106;21.024;2023-02-12T14:32:55;14.43;;;7.70;;
22030;SDS011;11179;52.106;21.024;2023-02-12T14:41:13;11.17;;;6.20;;
22030;SDS011;11179;52.106;21.024;2023-02-12T14:49:27;19.20;;;6.63;;
22030;SDS011;11179;52.106;21.024;2023-02-12T14:52:22;16.53;;;6.80;;
22030;SDS011;11179;52.106;21.024;2023-02-12T14:59:45;14.87;;;6.87;;
22030;SDS011;11179;52.106;21.024;2023-02-12T15:02:13;14.65;;;7.25;;
22030;SDS011;11179;52.106;21.024;2023-02-12T15:04:48;16.23;;;7.83;;
22030;SDS011;11179;52.106;21.024;2023-02-12T15:07:16;12.90;;;7.77;;
22030;SDS011;11179;52.106;21.024;2023-02-12T15:09:50;12.50;;;7.27;;
22030;SDS011;11179;52.106;21.024;2023-02-12T15:12:24;15.33;;;8.00;;
22030;SDS011;11179;52.106;21.024;2023-02-12T15:17:59;17.05;;;7.35;;
22030;SDS011;11179;52.106;21.024;2023-02-12T15:20:34;17.57;;;8.13;;
22030;SDS011;11179;52.106;21.024;2023-02-12T15:23:28;16.13;;;7.60;;
22030;SDS011;11179;52.106;21.024;2023-02-12T15:25:56;15.27;;;7.30;;
22030;SDS011;11179;52.106;21.024;2023-02-12T15:28:24;17.43;;;8.20;;
22030;SDS011;11179;52.106;21.024;2023-02-12T15:30:57;16.80;;;7.97;;
22030;SDS011;11179;52.106;21.024;2023-02-12T15:33:32;17.10;;;7.60;;
22030;SDS011;11179;52.106;21.024;2023-02-12T15:35:59;15.60;;;6.70;;
22030;SDS011;11179;52.106;21.024;2023-02-12T15:38:37;16.53;;;9.27;;
22030;SDS011;11179;52.106;21.024;2023-02-12T15:41:22;16.03;;;7.70;;
22030;SDS011;11179;52.106;21.024;2023-02-12T15:43:57;13.90;;;7.10;;
22030;SDS011;11179;52.106;21.024;2023-02-12T15:47:00;13.70;;;7.87;;
22030;SDS011;11179;52.106;21.024;2023-02-12T15:49:36;19.10;;;8.30;;
22030;SDS011;11179;52.106;21.024;2023-02-12T15:52:26;17.23;;;9.20;;
22030;SDS011;11179;52.106;21.024;2023-02-12T15:54:58;20.20;;;9.47;;
22030;SDS011;11179;52.106;21.024;2023-02-12T15:57:24;15.23;;;8.73;;
22030;SDS011;11179;52.106;21.024;2023-02-12T15:59:51;20.73;;;10.50;;
22030;SDS011;11179;52.106;21.024;2023-02-12T16:02:20;17.17;;;9.95;;
22030;SDS011;11179;52.106;21.024;2023-02-12T16:04:49;17.53;;;9.80;;
22030;SDS011;11179;52.106;21.024;2023-02-12T16:07:15;20.50;;;11.17;;
22030;SDS011;11179;52.106;21.024;2023-02-12T16:09:41;20.05;;;10.45;;
22030;SDS011;11179;52.106;21.024;2023-02-12T16:12:09;19.77;;;10.00;;
22030;SDS011;11179;52.106;21.024;2023-02-12T16:14:39;17.63;;;10.00;;
22030;SDS011;11179;52.106;21.024;2023-02-12T16:19:59;16.13;;;9.20;;
22030;SDS011;11179;52.106;21.024;2023-02-12T16:22:28;25.30;;;9.20;;
22030;SDS011;11179;52.106;21.024;2023-02-12T16:24:56;18.52;;;9.50;;
22030;SDS011;11179;52.106;21.024;2023-02-12T16:27:26;21.50;;;10.53;;
22030;SDS011;11179;52.106;21.024;2023-02-12T16:29:55;21.60;;;9.77;;
22030;SDS011;11179;52.106;21.024;2023-02-12T16:37:59;18.52;;;10.07;;
22030;SDS011;11179;52.106;21.024;2023-02-12T16:40:31;26.77;;;10.60;;
22030;SDS011;11179;52.106;21.024;2023-02-12T16:42:59;22.10;;;11.40;;
22030;SDS011;11179;52.106;21.024;2023-02-12T16:50:34;31.67;;;15.70;;
22030;SDS011;11179;52.106;21.024;2023-02-12T16:55:57;28.77;;;16.63;;
22030;SDS011;11179;52.106;21.024;2023-02-12T16:58:24;37.87;;;18.47;;
22030;SDS011;11179;52.106;21.024;2023-02-12T17:00:50;42.67;;;22.33;;
22030;SDS011;11179;52.106;21.024;2023-02-12T17:03:17;41.78;;;20.08;;
22030;SDS011;11179;52.106;21.024;2023-02-12T17:05:43;39.83;;;21.63;;
22030;SDS011;11179;52.106;21.024;2023-02-12T17:08:12;46.60;;;21.90;;
22030;SDS011;11179;52.106;21.024;2023-02-12T17:10:38;44.08;;;21.48;;
22030;SDS011;11179;52.106;21.024;2023-02-12T17:13:04;39.17;;;19.87;;
22030;SDS011;11179;52.106;21.024;2023-02-12T17:15:32;41.80;;;23.33;;
22030;SDS011;11179;52.106;21.024;2023-02-12T17:18:02;39.22;;;19.60;;
22030;SDS011;11179;52.106;21.024;2023-02-12T17:20:28;42.03;;;22.20;;
22030;SDS011;11179;52.106;21.024;2023-02-12T17:22:53;42.40;;;21.50;;
22030;SDS011;11179;52.106;21.024;2023-02-12T17:25:21;46.42;;;22.42;;
22030;SDS011;11179;52.106;21.024;2023-02-12T17:27:47;46.50;;;22.47;;
22030;SDS011;11179;52.106;21.024;2023-02-12T17:30:18;46.43;;;23.10;;